Terminal Aerodrome Forecast
Issued by NWS Chicago, IL

Home | Current Version | Previous Version | Graphics & Text | Print | Product List | Glossary On
Versions: 1 2 3 4 5 6 7 8 9 10 11 12 13 14 15 16 17 18 19 20 21 22 23 24 25 26 27 28 29 30 31 32 33 34
000
FTUS43 KLOT 242200 AAA
TAFRFD
TAF AMD
KRFD 242203Z 2422/2518 15008KT P6SM SCT025 SCT250
     FM250100 15006KT P6SM FEW025
     FM250900 16003KT 3SM BR BCFG SCT110 BKN250
     FM251400 20007KT P6SM SCT110 BKN250=

USA.gov is the U.S. government's official web portal to all federal, state and local government web resources and services.